sensor_id;sensor_type;location;lat;lon;timestamp;temperature;humidity
2751;DHT22;1383;48.362;10.908;2023-03-13T00:01:37;8.10;72.90
2751;DHT22;1383;48.362;10.908;2023-03-13T00:04:05;8.20;72.80
2751;DHT22;1383;48.362;10.908;2023-03-13T00:06:34;8.10;72.60
2751;DHT22;1383;48.362;10.908;2023-03-13T00:09:14;8.10;72.30
2751;DHT22;1383;48.362;10.908;2023-03-13T00:11:42;8.10;72.30
2751;DHT22;1383;48.362;10.908;2023-03-13T00:14:09;8.10;72.00
2751;DHT22;1383;48.362;10.908;2023-03-13T00:16:36;8.10;71.80
2751;DHT22;1383;48.362;10.908;2023-03-13T00:19:04;8.10;71.70
2751;DHT22;1383;48.362;10.908;2023-03-13T00:21:31;8.10;71.40
2751;DHT22;1383;48.362;10.908;2023-03-13T00:23:59;8.10;71.40
2751;DHT22;1383;48.362;10.908;2023-03-13T00:26:27;8.10;71.20
2751;DHT22;1383;48.362;10.908;2023-03-13T00:28:54;8.10;71.00
2751;DHT22;1383;48.362;10.908;2023-03-13T00:31:23;8.10;70.90
2751;DHT22;1383;48.362;10.908;2023-03-13T00:33:53;8.20;70.70
2751;DHT22;1383;48.362;10.908;2023-03-13T00:36:22;8.10;70.40
2751;DHT22;1383;48.362;10.908;2023-03-13T00:38:50;8.10;70.30
2751;DHT22;1383;48.362;10.908;2023-03-13T00:41:29;8.10;70.50
2751;DHT22;1383;48.362;10.908;2023-03-13T00:43:56;8.10;70.50
2751;DHT22;1383;48.362;10.908;2023-03-13T00:46:25;8.10;70.60
2751;DHT22;1383;48.362;10.908;2023-03-13T00:48:52;8.00;70.60
2751;DHT22;1383;48.362;10.908;2023-03-13T00:51:21;8.00;70.50
2751;DHT22;1383;48.362;10.908;2023-03-13T00:53:49;8.00;70.50
2751;DHT22;1383;48.362;10.908;2023-03-13T00:56:18;8.00;70.70
2751;DHT22;1383;48.362;10.908;2023-03-13T00:58:47;7.90;70.50
2751;DHT22;1383;48.362;10.908;2023-03-13T01:01:24;7.90;71.00
2751;DHT22;1383;48.362;10.908;2023-03-13T01:03:56;7.80;71.60
2751;DHT22;1383;48.362;10.908;2023-03-13T01:06:29;7.80;71.40
2751;DHT22;1383;48.362;10.908;2023-03-13T01:08:57;7.80;71.70
2751;DHT22;1383;48.362;10.908;2023-03-13T01:11:27;7.80;71.70
2751;DHT22;1383;48.362;10.908;2023-03-13T01:13:55;7.80;71.70
2751;DHT22;1383;48.362;10.908;2023-03-13T01:16:24;7.70;71.30
2751;DHT22;1383;48.362;10.908;2023-03-13T01:18:53;7.70;71.80
2751;DHT22;1383;48.362;10.908;2023-03-13T01:21:22;7.70;71.70
2751;DHT22;1383;48.362;10.908;2023-03-13T01:23:50;7.60;72.20
2751;DHT22;1383;48.362;10.908;2023-03-13T01:26:18;7.50;72.60
2751;DHT22;1383;48.362;10.908;2023-03-13T01:28:45;7.60;74.20
2751;DHT22;1383;48.362;10.908;2023-03-13T01:31:20;7.40;73.40
2751;DHT22;1383;48.362;10.908;2023-03-13T01:33:53;7.30;74.10
2751;DHT22;1383;48.362;10.908;2023-03-13T01:36:21;7.30;74.60
2751;DHT22;1383;48.362;10.908;2023-03-13T01:38:50;7.30;75.10
2751;DHT22;1383;48.362;10.908;2023-03-13T01:41:18;7.40;75.00
2751;DHT22;1383;48.362;10.908;2023-03-13T01:43:45;7.40;75.10
2751;DHT22;1383;48.362;10.908;2023-03-13T01:46:13;7.50;74.80
2751;DHT22;1383;48.362;10.908;2023-03-13T01:48:52;7.50;74.20
2751;DHT22;1383;48.362;10.908;2023-03-13T01:51:34;7.40;73.70
2751;DHT22;1383;48.362;10.908;2023-03-13T01:54:08;7.40;74.20
2751;DHT22;1383;48.362;10.908;2023-03-13T01:56:44;7.40;74.40
2751;DHT22;1383;48.362;10.908;2023-03-13T01:59:15;7.30;74.50
2751;DHT22;1383;48.362;10.908;2023-03-13T02:01:44;7.30;74.60
2751;DHT22;1383;48.362;10.908;2023-03-13T02:04:14;7.30;75.40
2751;DHT22;1383;48.362;10.908;2023-03-13T02:06:44;7.40;75.40
2751;DHT22;1383;48.362;10.908;2023-03-13T02:09:17;7.30;75.00
2751;DHT22;1383;48.362;10.908;2023-03-13T02:11:57;7.40;75.60
2751;DHT22;1383;48.362;10.908;2023-03-13T02:14:28;7.40;75.50
2751;DHT22;1383;48.362;10.908;2023-03-13T02:16:56;7.40;74.70
2751;DHT22;1383;48.362;10.908;2023-03-13T02:19:48;7.40;74.30
2751;DHT22;1383;48.362;10.908;2023-03-13T02:22:28;7.50;74.50
2751;DHT22;1383;48.362;10.908;2023-03-13T02:27:52;7.50;74.40
2751;DHT22;1383;48.362;10.908;2023-03-13T02:30:20;7.50;74.10
2751;DHT22;1383;48.362;10.908;2023-03-13T02:32:47;7.50;74.10
2751;DHT22;1383;48.362;10.908;2023-03-13T02:35:17;7.50;74.00
2751;DHT22;1383;48.362;10.908;2023-03-13T02:37:49;7.70;73.90
2751;DHT22;1383;48.362;10.908;2023-03-13T02:40:22;7.70;73.20
2751;DHT22;1383;48.362;10.908;2023-03-13T02:42:51;7.80;72.30
2751;DHT22;1383;48.362;10.908;2023-03-13T02:45:19;7.90;71.70
2751;DHT22;1383;48.362;10.908;2023-03-13T02:47:45;7.90;71.40
2751;DHT22;1383;48.362;10.908;2023-03-13T02:50:13;8.00;71.20
2751;DHT22;1383;48.362;10.908;2023-03-13T02:52:45;8.00;70.30
2751;DHT22;1383;48.362;10.908;2023-03-13T02:55:17;8.10;70.30
2751;DHT22;1383;48.362;10.908;2023-03-13T02:57:48;8.20;69.20
2751;DHT22;1383;48.362;10.908;2023-03-13T03:00:15;8.30;68.50
2751;DHT22;1383;48.362;10.908;2023-03-13T03:02:43;8.30;68.00
2751;DHT22;1383;48.362;10.908;2023-03-13T03:05:13;8.40;66.80
2751;DHT22;1383;48.362;10.908;2023-03-13T03:07:39;8.40;66.50
2751;DHT22;1383;48.362;10.908;2023-03-13T03:10:07;8.40;66.20
2751;DHT22;1383;48.362;10.908;2023-03-13T03:12:34;8.40;65.90
2751;DHT22;1383;48.362;10.908;2023-03-13T03:15:01;8.40;65.80
2751;DHT22;1383;48.362;10.908;2023-03-13T03:17:30;8.40;65.80
2751;DHT22;1383;48.362;10.908;2023-03-13T03:19:56;8.40;65.70
2751;DHT22;1383;48.362;10.908;2023-03-13T03:22:23;8.40;65.60
2751;DHT22;1383;48.362;10.908;2023-03-13T03:24:50;8.30;65.90
2751;DHT22;1383;48.362;10.908;2023-03-13T03:27:17;8.30;66.20
2751;DHT22;1383;48.362;10.908;2023-03-13T03:29:43;8.40;65.90
2751;DHT22;1383;48.362;10.908;2023-03-13T03:32:10;8.30;65.50
2751;DHT22;1383;48.362;10.908;2023-03-13T03:34:37;8.40;65.80
2751;DHT22;1383;48.362;10.908;2023-03-13T03:37:03;8.50;65.10
2751;DHT22;1383;48.362;10.908;2023-03-13T03:39:30;8.50;64.80
2751;DHT22;1383;48.362;10.908;2023-03-13T03:41:57;8.50;64.80
2751;DHT22;1383;48.362;10.908;2023-03-13T03:44:24;8.50;64.40
2751;DHT22;1383;48.362;10.908;2023-03-13T03:46:51;8.60;64.70
2751;DHT22;1383;48.362;10.908;2023-03-13T03:49:17;8.60;64.00
2751;DHT22;1383;48.362;10.908;2023-03-13T03:51:44;8.60;64.20
2751;DHT22;1383;48.362;10.908;2023-03-13T03:54:11;8.60;64.00
2751;DHT22;1383;48.362;10.908;2023-03-13T03:56:38;8.60;63.60
2751;DHT22;1383;48.362;10.908;2023-03-13T03:59:05;8.60;63.20
2751;DHT22;1383;48.362;10.908;2023-03-13T04:01:31;8.60;63.40
2751;DHT22;1383;48.362;10.908;2023-03-13T04:03:58;8.70;62.70
2751;DHT22;1383;48.362;10.908;2023-03-13T04:06:25;8.80;62.70
2751;DHT22;1383;48.362;10.908;2023-03-13T04:08:51;8.70;62.10
2751;DHT22;1383;48.362;10.908;2023-03-13T04:11:18;8.70;61.90
2751;DHT22;1383;48.362;10.908;2023-03-13T04:13:45;8.60;62.10
2751;DHT22;1383;48.362;10.908;2023-03-13T04:16:12;8.70;62.00
2751;DHT22;1383;48.362;10.908;2023-03-13T04:18:39;8.70;61.40
2751;DHT22;1383;48.362;10.908;2023-03-13T04:21:06;8.80;61.20
2751;DHT22;1383;48.362;10.908;2023-03-13T04:23:32;8.80;61.10
2751;DHT22;1383;48.362;10.908;2023-03-13T04:25:59;8.90;61.30
2751;DHT22;1383;48.362;10.908;2023-03-13T04:28:26;8.90;61.00
2751;DHT22;1383;48.362;10.908;2023-03-13T04:30:53;8.90;60.50
2751;DHT22;1383;48.362;10.908;2023-03-13T04:33:24;8.90;60.50
2751;DHT22;1383;48.362;10.908;2023-03-13T04:35:50;8.90;60.50
2751;DHT22;1383;48.362;10.908;2023-03-13T04:38:17;8.80;61.00
2751;DHT22;1383;48.362;10.908;2023-03-13T04:40:45;8.90;60.60
2751;DHT22;1383;48.362;10.908;2023-03-13T04:43:12;8.90;60.90
2751;DHT22;1383;48.362;10.908;2023-03-13T04:45:39;8.90;60.60
2751;DHT22;1383;48.362;10.908;2023-03-13T04:48:05;9.00;60.40
2751;DHT22;1383;48.362;10.908;2023-03-13T04:50:32;8.90;59.70
2751;DHT22;1383;48.362;10.908;2023-03-13T04:52:59;9.00;60.00
2751;DHT22;1383;48.362;10.908;2023-03-13T04:55:26;9.00;60.90
2751;DHT22;1383;48.362;10.908;2023-03-13T04:57:52;9.00;59.60
2751;DHT22;1383;48.362;10.908;2023-03-13T05:00:19;9.10;60.00
2751;DHT22;1383;48.362;10.908;2023-03-13T05:02:46;9.10;59.80
2751;DHT22;1383;48.362;10.908;2023-03-13T05:05:13;9.20;59.80
2751;DHT22;1383;48.362;10.908;2023-03-13T05:07:39;9.20;59.70
2751;DHT22;1383;48.362;10.908;2023-03-13T05:10:07;9.30;59.80
2751;DHT22;1383;48.362;10.908;2023-03-13T05:12:33;9.30;59.90
2751;DHT22;1383;48.362;10.908;2023-03-13T05:15:00;9.30;59.90
2751;DHT22;1383;48.362;10.908;2023-03-13T05:17:27;9.30;60.30
2751;DHT22;1383;48.362;10.908;2023-03-13T05:19:54;9.40;60.70
2751;DHT22;1383;48.362;10.908;2023-03-13T05:22:20;9.40;60.20
2751;DHT22;1383;48.362;10.908;2023-03-13T05:24:47;9.40;60.00
2751;DHT22;1383;48.362;10.908;2023-03-13T05:27:14;9.50;60.30
2751;DHT22;1383;48.362;10.908;2023-03-13T05:29:41;9.50;59.60
2751;DHT22;1383;48.362;10.908;2023-03-13T05:32:07;9.50;59.30
2751;DHT22;1383;48.362;10.908;2023-03-13T05:34:34;9.50;58.90
2751;DHT22;1383;48.362;10.908;2023-03-13T05:37:01;9.60;59.20
2751;DHT22;1383;48.362;10.908;2023-03-13T05:39:28;9.70;59.10
2751;DHT22;1383;48.362;10.908;2023-03-13T05:41:54;9.60;58.70
2751;DHT22;1383;48.362;10.908;2023-03-13T05:44:21;9.60;59.30
2751;DHT22;1383;48.362;10.908;2023-03-13T05:46:48;9.70;59.40
2751;DHT22;1383;48.362;10.908;2023-03-13T05:49:15;9.70;59.50
2751;DHT22;1383;48.362;10.908;2023-03-13T05:51:41;9.70;58.80
2751;DHT22;1383;48.362;10.908;2023-03-13T05:54:08;9.80;59.30
2751;DHT22;1383;48.362;10.908;2023-03-13T05:56:35;9.80;58.50
2751;DHT22;1383;48.362;10.908;2023-03-13T05:59:02;9.90;58.00
2751;DHT22;1383;48.362;10.908;2023-03-13T06:01:28;9.90;57.20
2751;DHT22;1383;48.362;10.908;2023-03-13T06:03:55;10.00;55.10
2751;DHT22;1383;48.362;10.908;2023-03-13T06:06:22;10.00;54.50
2751;DHT22;1383;48.362;10.908;2023-03-13T06:08:51;10.10;54.30
2751;DHT22;1383;48.362;10.908;2023-03-13T06:11:18;10.10;54.30
2751;DHT22;1383;48.362;10.908;2023-03-13T06:13:45;10.20;53.80
2751;DHT22;1383;48.362;10.908;2023-03-13T06:16:12;10.20;53.00
2751;DHT22;1383;48.362;10.908;2023-03-13T06:18:38;10.30;52.40
2751;DHT22;1383;48.362;10.908;2023-03-13T06:21:05;10.30;52.40
2751;DHT22;1383;48.362;10.908;2023-03-13T06:23:32;10.30;51.90
2751;DHT22;1383;48.362;10.908;2023-03-13T06:25:59;10.30;52.30
2751;DHT22;1383;48.362;10.908;2023-03-13T06:28:27;10.30;52.10
2751;DHT22;1383;48.362;10.908;2023-03-13T06:30:54;10.40;51.40
2751;DHT22;1383;48.362;10.908;2023-03-13T06:33:26;10.40;50.40
2751;DHT22;1383;48.362;10.908;2023-03-13T06:35:52;10.60;50.00
2751;DHT22;1383;48.362;10.908;2023-03-13T06:38:26;10.60;50.40
2751;DHT22;1383;48.362;10.908;2023-03-13T06:40:53;10.70;49.50
2751;DHT22;1383;48.362;10.908;2023-03-13T06:43:20;10.70;49.70
2751;DHT22;1383;48.362;10.908;2023-03-13T06:45:47;10.80;49.70
2751;DHT22;1383;48.362;10.908;2023-03-13T06:48:14;10.90;49.00
2751;DHT22;1383;48.362;10.908;2023-03-13T06:50:41;10.90;49.00
2751;DHT22;1383;48.362;10.908;2023-03-13T06:53:19;11.00;48.50
2751;DHT22;1383;48.362;10.908;2023-03-13T06:55:46;11.00;48.30
2751;DHT22;1383;48.362;10.908;2023-03-13T06:58:15;11.10;48.30
2751;DHT22;1383;48.362;10.908;2023-03-13T07:01:07;11.10;48.00
2751;DHT22;1383;48.362;10.908;2023-03-13T07:03:35;11.20;47.70
2751;DHT22;1383;48.362;10.908;2023-03-13T07:06:03;11.20;47.90
2751;DHT22;1383;48.362;10.908;2023-03-13T07:08:31;11.30;48.10
2751;DHT22;1383;48.362;10.908;2023-03-13T07:11:01;11.30;47.90
2751;DHT22;1383;48.362;10.908;2023-03-13T07:13:28;11.40;48.10
2751;DHT22;1383;48.362;10.908;2023-03-13T07:15:58;11.40;47.90
2751;DHT22;1383;48.362;10.908;2023-03-13T07:18:25;11.60;47.70
2751;DHT22;1383;48.362;10.908;2023-03-13T07:20:57;11.70;47.20
2751;DHT22;1383;48.362;10.908;2023-03-13T07:23:26;11.80;47.20
2751;DHT22;1383;48.362;10.908;2023-03-13T07:25:57;11.90;47.20
2751;DHT22;1383;48.362;10.908;2023-03-13T07:28:25;12.00;46.40
2751;DHT22;1383;48.362;10.908;2023-03-13T07:30:52;12.10;46.30
2751;DHT22;1383;48.362;10.908;2023-03-13T07:33:19;12.10;46.40
2751;DHT22;1383;48.362;10.908;2023-03-13T07:35:50;12.20;46.10
2751;DHT22;1383;48.362;10.908;2023-03-13T07:38:18;12.20;46.30
2751;DHT22;1383;48.362;10.908;2023-03-13T07:40:49;12.20;46.00
2751;DHT22;1383;48.362;10.908;2023-03-13T07:43:16;12.30;46.10
2751;DHT22;1383;48.362;10.908;2023-03-13T07:45:51;12.30;46.30
2751;DHT22;1383;48.362;10.908;2023-03-13T07:48:19;12.20;47.20
2751;DHT22;1383;48.362;10.908;2023-03-13T07:50:46;12.10;49.20
2751;DHT22;1383;48.362;10.908;2023-03-13T07:53:13;11.90;51.00
2751;DHT22;1383;48.362;10.908;2023-03-13T07:56:08;11.80;52.40
2751;DHT22;1383;48.362;10.908;2023-03-13T07:58:37;11.80;53.40
2751;DHT22;1383;48.362;10.908;2023-03-13T08:01:09;11.80;54.00
2751;DHT22;1383;48.362;10.908;2023-03-13T08:03:37;11.90;53.20
2751;DHT22;1383;48.362;10.908;2023-03-13T08:06:12;12.00;53.90
2751;DHT22;1383;48.362;10.908;2023-03-13T08:08:40;12.10;52.20
2751;DHT22;1383;48.362;10.908;2023-03-13T08:11:09;12.20;51.80
2751;DHT22;1383;48.362;10.908;2023-03-13T08:13:37;12.30;51.20
2751;DHT22;1383;48.362;10.908;2023-03-13T08:18:40;12.30;50.90
2751;DHT22;1383;48.362;10.908;2023-03-13T08:21:09;12.40;51.00
2751;DHT22;1383;48.362;10.908;2023-03-13T08:23:37;12.60;50.20
2751;DHT22;1383;48.362;10.908;2023-03-13T08:26:06;12.90;50.40
2751;DHT22;1383;48.362;10.908;2023-03-13T08:28:34;13.20;47.70
2751;DHT22;1383;48.362;10.908;2023-03-13T08:33:40;13.50;46.70
2751;DHT22;1383;48.362;10.908;2023-03-13T08:36:13;13.70;46.40
2751;DHT22;1383;48.362;10.908;2023-03-13T08:38:40;13.80;45.10
2751;DHT22;1383;48.362;10.908;2023-03-13T08:41:12;13.90;44.70
2751;DHT22;1383;48.362;10.908;2023-03-13T08:43:39;13.90;44.50
2751;DHT22;1383;48.362;10.908;2023-03-13T08:46:06;14.00;45.10
2751;DHT22;1383;48.362;10.908;2023-03-13T08:48:33;14.10;45.10
2751;DHT22;1383;48.362;10.908;2023-03-13T08:51:05;14.40;44.50
2751;DHT22;1383;48.362;10.908;2023-03-13T08:53:33;14.50;43.20
2751;DHT22;1383;48.362;10.908;2023-03-13T08:56:01;14.50;42.60
2751;DHT22;1383;48.362;10.908;2023-03-13T08:58:28;14.40;42.10
2751;DHT22;1383;48.362;10.908;2023-03-13T09:01:00;14.60;42.60
2751;DHT22;1383;48.362;10.908;2023-03-13T09:03:27;14.70;41.50
2751;DHT22;1383;48.362;10.908;2023-03-13T09:05:56;14.80;41.50
2751;DHT22;1383;48.362;10.908;2023-03-13T09:08:24;14.90;40.40
2751;DHT22;1383;48.362;10.908;2023-03-13T09:11:12;14.90;40.40
2751;DHT22;1383;48.362;10.908;2023-03-13T09:13:44;15.00;40.90
2751;DHT22;1383;48.362;10.908;2023-03-13T09:16:14;15.20;40.60
2751;DHT22;1383;48.362;10.908;2023-03-13T09:18:42;15.40;40.00
2751;DHT22;1383;48.362;10.908;2023-03-13T09:21:20;15.60;39.30
2751;DHT22;1383;48.362;10.908;2023-03-13T09:23:48;15.90;38.10
2751;DHT22;1383;48.362;10.908;2023-03-13T09:26:17;16.00;37.40
2751;DHT22;1383;48.362;10.908;2023-03-13T09:28:48;16.30;37.80
2751;DHT22;1383;48.362;10.908;2023-03-13T09:31:17;16.50;35.90
2751;DHT22;1383;48.362;10.908;2023-03-13T09:33:45;16.20;36.40
2751;DHT22;1383;48.362;10.908;2023-03-13T09:36:13;16.20;35.90
2751;DHT22;1383;48.362;10.908;2023-03-13T09:38:40;16.30;36.50
2751;DHT22;1383;48.362;10.908;2023-03-13T09:44:10;16.40;35.60
2751;DHT22;1383;48.362;10.908;2023-03-13T09:47:00;16.30;34.80
2751;DHT22;1383;48.362;10.908;2023-03-13T09:49:44;16.20;35.30
2751;DHT22;1383;48.362;10.908;2023-03-13T09:52:33;16.10;35.30
2751;DHT22;1383;48.362;10.908;2023-03-13T09:55:13;16.10;35.50
2751;DHT22;1383;48.362;10.908;2023-03-13T10:00:30;16.30;35.00
2751;DHT22;1383;48.362;10.908;2023-03-13T10:03:04;16.40;35.40
2751;DHT22;1383;48.362;10.908;2023-03-13T10:05:33;16.50;34.50
2751;DHT22;1383;48.362;10.908;2023-03-13T10:08:12;16.50;34.10
2751;DHT22;1383;48.362;10.908;2023-03-13T10:16:00;16.70;33.40
2751;DHT22;1383;48.362;10.908;2023-03-13T10:18:31;16.80;33.70
2751;DHT22;1383;48.362;10.908;2023-03-13T10:21:03;16.70;32.90
2751;DHT22;1383;48.362;10.908;2023-03-13T10:26:30;16.80;33.10
2751;DHT22;1383;48.362;10.908;2023-03-13T10:29:10;16.90;33.10
2751;DHT22;1383;48.362;10.908;2023-03-13T10:32:00;17.00;32.60
2751;DHT22;1383;48.362;10.908;2023-03-13T10:34:32;17.10;32.80
2751;DHT22;1383;48.362;10.908;2023-03-13T10:37:14;17.30;32.70
2751;DHT22;1383;48.362;10.908;2023-03-13T10:39:41;17.50;32.50
2751;DHT22;1383;48.362;10.908;2023-03-13T10:42:10;17.70;31.70
2751;DHT22;1383;48.362;10.908;2023-03-13T10:44:43;17.70;31.90
2751;DHT22;1383;48.362;10.908;2023-03-13T10:47:12;17.70;31.90
2751;DHT22;1383;48.362;10.908;2023-03-13T10:49:51;17.70;32.10
2751;DHT22;1383;48.362;10.908;2023-03-13T10:52:34;17.80;32.00
2751;DHT22;1383;48.362;10.908;2023-03-13T10:55:04;17.70;32.20
2751;DHT22;1383;48.362;10.908;2023-03-13T10:57:35;17.50;32.50
2751;DHT22;1383;48.362;10.908;2023-03-13T11:00:36;17.50;33.30
2751;DHT22;1383;48.362;10.908;2023-03-13T11:03:39;17.50;33.30
2751;DHT22;1383;48.362;10.908;2023-03-13T11:06:02;17.50;33.40
2751;DHT22;1383;48.362;10.908;2023-03-13T11:08:36;17.50;33.30
2751;DHT22;1383;48.362;10.908;2023-03-13T11:11:04;17.50;33.60
2751;DHT22;1383;48.362;10.908;2023-03-13T11:13:40;17.40;33.70
2751;DHT22;1383;48.362;10.908;2023-03-13T11:16:18;17.40;33.70
2751;DHT22;1383;48.362;10.908;2023-03-13T11:19:00;17.50;34.30
2751;DHT22;1383;48.362;10.908;2023-03-13T11:24:37;17.70;34.30
2751;DHT22;1383;48.362;10.908;2023-03-13T11:30:18;17.60;34.00
2751;DHT22;1383;48.362;10.908;2023-03-13T11:32:55;17.70;34.00
2751;DHT22;1383;48.362;10.908;2023-03-13T11:35:41;17.70;33.90
2751;DHT22;1383;48.362;10.908;2023-03-13T11:41:19;17.60;34.00
2751;DHT22;1383;48.362;10.908;2023-03-13T11:52:54;17.50;34.30
2751;DHT22;1383;48.362;10.908;2023-03-13T12:01:10;17.30;35.20
2751;DHT22;1383;48.362;10.908;2023-03-13T12:06:35;17.30;35.70
2751;DHT22;1383;48.362;10.908;2023-03-13T12:09:25;17.40;35.40
2751;DHT22;1383;48.362;10.908;2023-03-13T12:12:02;17.40;35.50
2751;DHT22;1383;48.362;10.908;2023-03-13T12:14:44;17.50;35.30
2751;DHT22;1383;48.362;10.908;2023-03-13T12:21:06;17.60;35.30
2751;DHT22;1383;48.362;10.908;2023-03-13T12:26:14;17.90;35.10
2751;DHT22;1383;48.362;10.908;2023-03-13T12:28:50;17.80;35.00
2751;DHT22;1383;48.362;10.908;2023-03-13T12:31:35;17.90;34.90
2751;DHT22;1383;48.362;10.908;2023-03-13T12:36:50;17.80;34.80
2751;DHT22;1383;48.362;10.908;2023-03-13T12:44:44;17.90;34.50
2751;DHT22;1383;48.362;10.908;2023-03-13T12:47:31;17.90;34.90
2751;DHT22;1383;48.362;10.908;2023-03-13T13:01:06;18.10;34.20
2751;DHT22;1383;48.362;10.908;2023-03-13T13:06:24;18.40;33.80
2751;DHT22;1383;48.362;10.908;2023-03-13T13:19:54;18.60;33.00
2751;DHT22;1383;48.362;10.908;2023-03-13T13:32:52;18.90;32.10
2751;DHT22;1383;48.362;10.908;2023-03-13T13:35:29;18.90;32.00
2751;DHT22;1383;48.362;10.908;2023-03-13T13:43:36;18.90;31.10
2751;DHT22;1383;48.362;10.908;2023-03-13T13:49:12;18.90;31.60
2751;DHT22;1383;48.362;10.908;2023-03-13T13:57:14;18.90;32.30
2751;DHT22;1383;48.362;10.908;2023-03-13T13:59:42;18.90;32.40
2751;DHT22;1383;48.362;10.908;2023-03-13T14:05:20;19.00;31.80
2751;DHT22;1383;48.362;10.908;2023-03-13T14:10:24;19.00;31.10
2751;DHT22;1383;48.362;10.908;2023-03-13T14:12:58;19.10;31.30
2751;DHT22;1383;48.362;10.908;2023-03-13T14:17:53;19.20;30.70
2751;DHT22;1383;48.362;10.908;2023-03-13T14:22:51;19.30;30.90
2751;DHT22;1383;48.362;10.908;2023-03-13T14:25:21;19.30;30.80
2751;DHT22;1383;48.362;10.908;2023-03-13T14:27:49;19.40;30.50
2751;DHT22;1383;48.362;10.908;2023-03-13T14:30:18;19.40;30.00
2751;DHT22;1383;48.362;10.908;2023-03-13T14:32:45;19.30;29.90
2751;DHT22;1383;48.362;10.908;2023-03-13T14:35:18;19.30;29.70
2751;DHT22;1383;48.362;10.908;2023-03-13T14:37:48;19.30;29.80
2751;DHT22;1383;48.362;10.908;2023-03-13T14:40:28;19.30;30.00
2751;DHT22;1383;48.362;10.908;2023-03-13T14:42:57;19.30;30.30
2751;DHT22;1383;48.362;10.908;2023-03-13T14:45:35;19.30;30.20
2751;DHT22;1383;48.362;10.908;2023-03-13T14:48:20;19.30;30.30
2751;DHT22;1383;48.362;10.908;2023-03-13T14:50:50;19.40;30.40
2751;DHT22;1383;48.362;10.908;2023-03-13T14:53:34;19.20;30.10
2751;DHT22;1383;48.362;10.908;2023-03-13T14:58:38;19.20;30.80
2751;DHT22;1383;48.362;10.908;2023-03-13T15:01:26;19.10;30.80
2751;DHT22;1383;48.362;10.908;2023-03-13T15:03:56;19.10;30.70
2751;DHT22;1383;48.362;10.908;2023-03-13T15:06:24;19.00;31.00
2751;DHT22;1383;48.362;10.908;2023-03-13T15:11:41;19.00;31.20
2751;DHT22;1383;48.362;10.908;2023-03-13T15:14:31;19.10;31.40
2751;DHT22;1383;48.362;10.908;2023-03-13T15:16:58;19.10;31.30
2751;DHT22;1383;48.362;10.908;2023-03-13T15:19:25;19.20;31.50
2751;DHT22;1383;48.362;10.908;2023-03-13T15:21:52;19.20;31.30
2751;DHT22;1383;48.362;10.908;2023-03-13T15:24:20;19.20;31.20
2751;DHT22;1383;48.362;10.908;2023-03-13T15:26:47;19.20;31.40
2751;DHT22;1383;48.362;10.908;2023-03-13T15:29:14;19.20;31.20
2751;DHT22;1383;48.362;10.908;2023-03-13T15:31:43;19.20;31.10
2751;DHT22;1383;48.362;10.908;2023-03-13T15:34:12;19.10;31.00
2751;DHT22;1383;48.362;10.908;2023-03-13T15:36:40;19.00;30.50
2751;DHT22;1383;48.362;10.908;2023-03-13T15:39:15;19.00;30.90
2751;DHT22;1383;48.362;10.908;2023-03-13T15:41:42;19.00;30.90
2751;DHT22;1383;48.362;10.908;2023-03-13T15:44:09;19.00;30.70
2751;DHT22;1383;48.362;10.908;2023-03-13T15:46:36;18.90;30.70
2751;DHT22;1383;48.362;10.908;2023-03-13T15:49:03;19.00;30.60
2751;DHT22;1383;48.362;10.908;2023-03-13T15:51:30;19.00;30.90
2751;DHT22;1383;48.362;10.908;2023-03-13T15:53:58;19.00;30.90
2751;DHT22;1383;48.362;10.908;2023-03-13T15:56:28;18.90;30.80
2751;DHT22;1383;48.362;10.908;2023-03-13T15:58:56;19.00;31.00
2751;DHT22;1383;48.362;10.908;2023-03-13T16:01:23;19.00;31.10
2751;DHT22;1383;48.362;10.908;2023-03-13T16:03:50;19.00;30.90
2751;DHT22;1383;48.362;10.908;2023-03-13T16:06:19;19.00;31.20
2751;DHT22;1383;48.362;10.908;2023-03-13T16:08:46;19.00;31.50
2751;DHT22;1383;48.362;10.908;2023-03-13T16:11:15;18.90;32.10
2751;DHT22;1383;48.362;10.908;2023-03-13T16:13:42;18.90;32.40
2751;DHT22;1383;48.362;10.908;2023-03-13T16:16:27;18.90;32.80
2751;DHT22;1383;48.362;10.908;2023-03-13T16:18:56;18.80;33.30
2751;DHT22;1383;48.362;10.908;2023-03-13T16:21:27;18.80;33.60
2751;DHT22;1383;48.362;10.908;2023-03-13T16:23:55;18.70;33.90
2751;DHT22;1383;48.362;10.908;2023-03-13T16:26:24;18.70;34.20
2751;DHT22;1383;48.362;10.908;2023-03-13T16:28:52;18.60;34.20
2751;DHT22;1383;48.362;10.908;2023-03-13T16:31:20;18.60;34.50
2751;DHT22;1383;48.362;10.908;2023-03-13T16:33:48;18.50;34.70
2751;DHT22;1383;48.362;10.908;2023-03-13T16:36:27;18.40;34.80
2751;DHT22;1383;48.362;10.908;2023-03-13T16:38:56;18.40;34.70
2751;DHT22;1383;48.362;10.908;2023-03-13T16:41:25;18.40;34.80
2751;DHT22;1383;48.362;10.908;2023-03-13T16:43:53;18.40;34.80
2751;DHT22;1383;48.362;10.908;2023-03-13T16:46:31;18.30;34.90
2751;DHT22;1383;48.362;10.908;2023-03-13T16:49:00;18.30;34.90
2751;DHT22;1383;48.362;10.908;2023-03-13T16:51:27;18.20;34.40
2751;DHT22;1383;48.362;10.908;2023-03-13T16:53:55;18.10;34.50
2751;DHT22;1383;48.362;10.908;2023-03-13T16:58:53;18.10;34.20
2751;DHT22;1383;48.362;10.908;2023-03-13T17:01:21;18.00;34.20
2751;DHT22;1383;48.362;10.908;2023-03-13T17:03:50;17.90;33.80
2751;DHT22;1383;48.362;10.908;2023-03-13T17:06:23;17.90;34.00
2751;DHT22;1383;48.362;10.908;2023-03-13T17:08:51;17.80;33.60
2751;DHT22;1383;48.362;10.908;2023-03-13T17:11:19;17.70;33.70
2751;DHT22;1383;48.362;10.908;2023-03-13T17:13:48;17.60;33.70
2751;DHT22;1383;48.362;10.908;2023-03-13T17:16:21;17.50;33.90
2751;DHT22;1383;48.362;10.908;2023-03-13T17:18:50;17.40;33.70
2751;DHT22;1383;48.362;10.908;2023-03-13T17:21:25;17.40;33.90
2751;DHT22;1383;48.362;10.908;2023-03-13T17:23:54;17.40;33.90
2751;DHT22;1383;48.362;10.908;2023-03-13T17:26:22;17.30;34.10
2751;DHT22;1383;48.362;10.908;2023-03-13T17:28:51;17.20;34.40
2751;DHT22;1383;48.362;10.908;2023-03-13T17:31:20;17.20;34.60
2751;DHT22;1383;48.362;10.908;2023-03-13T17:33:47;17.10;34.60
2751;DHT22;1383;48.362;10.908;2023-03-13T17:36:25;17.10;35.00
2751;DHT22;1383;48.362;10.908;2023-03-13T17:39:01;17.00;35.30
2751;DHT22;1383;48.362;10.908;2023-03-13T17:41:30;16.90;35.40
2751;DHT22;1383;48.362;10.908;2023-03-13T17:43:58;16.90;35.70
2751;DHT22;1383;48.362;10.908;2023-03-13T17:46:44;16.80;35.90
2751;DHT22;1383;48.362;10.908;2023-03-13T17:49:16;16.70;36.20
2751;DHT22;1383;48.362;10.908;2023-03-13T17:51:43;16.60;36.60
2751;DHT22;1383;48.362;10.908;2023-03-13T17:54:12;16.50;36.80
2751;DHT22;1383;48.362;10.908;2023-03-13T17:56:42;16.50;37.40
2751;DHT22;1383;48.362;10.908;2023-03-13T17:59:15;16.40;38.30
2751;DHT22;1383;48.362;10.908;2023-03-13T18:01:42;16.30;38.10
2751;DHT22;1383;48.362;10.908;2023-03-13T18:04:10;16.20;38.50
2751;DHT22;1383;48.362;10.908;2023-03-13T18:06:41;16.10;38.90
2751;DHT22;1383;48.362;10.908;2023-03-13T18:09:18;16.00;39.30
2751;DHT22;1383;48.362;10.908;2023-03-13T18:11:47;15.90;39.70
2751;DHT22;1383;48.362;10.908;2023-03-13T18:14:14;15.80;40.00
2751;DHT22;1383;48.362;10.908;2023-03-13T18:16:43;15.70;40.30
2751;DHT22;1383;48.362;10.908;2023-03-13T18:21:49;15.60;40.60
2751;DHT22;1383;48.362;10.908;2023-03-13T18:24:16;15.50;40.70
2751;DHT22;1383;48.362;10.908;2023-03-13T18:26:44;15.50;40.80